createdAt,value
2023-05-22T00:00:29.642Z,27.09
2023-05-22T00:01:29.646Z,27.08
2023-05-22T00:02:29.712Z,27.09
2023-05-22T00:03:29.710Z,27.09
2023-05-22T00:04:29.700Z,27.08
2023-05-22T00:05:29.711Z,27.09
2023-05-22T00:06:29.691Z,27.09
2023-05-22T00:07:29.704Z,27.09
2023-05-22T00:08:30.000Z,27.09
2023-05-22T00:09:29.761Z,27.09
2023-05-22T00:10:29.735Z,27.09
2023-05-22T00:11:29.752Z,27.08
2023-05-22T00:12:29.758Z,27.08
2023-05-22T00:13:29.774Z,27.09
2023-05-22T00:14:29.784Z,27.08
2023-05-22T00:15:29.789Z,27.06
2023-05-22T00:16:29.806Z,27.08
2023-05-22T00:17:29.877Z,27.06
2023-05-22T00:18:29.818Z,27.05
2023-05-22T00:19:29.894Z,27.06
2023-05-22T00:20:29.835Z,27.05
2023-05-22T00:21:29.842Z,27.08
2023-05-22T00:22:29.858Z,27.04
2023-05-22T00:23:29.876Z,27.04
2023-05-22T00:24:29.862Z,27.04
2023-05-22T00:25:29.875Z,27.05
2023-05-22T00:26:29.894Z,27.06
2023-05-22T00:27:29.908Z,27.05
2023-05-22T00:28:29.907Z,27.01
2023-05-22T00:29:29.928Z,27.05
2023-05-22T00:30:29.931Z,27.04
2023-05-22T00:31:29.940Z,27.02
2023-05-22T00:32:30.001Z,27.04
2023-05-22T00:33:29.971Z,27.01
2023-05-22T00:34:30.022Z,27.05
2023-05-22T00:35:29.986Z,27.04
2023-05-22T00:36:29.986Z,27.01
2023-05-22T00:37:30.094Z,27.04
2023-05-22T00:38:30.014Z,27.02
2023-05-22T00:39:30.028Z,27.01
2023-05-22T00:40:30.032Z,27.01
2023-05-22T00:41:30.052Z,26.98
2023-05-22T00:42:30.069Z,27.01
2023-05-22T00:43:30.076Z,27.01
2023-05-22T00:44:30.092Z,27.02
2023-05-22T00:45:30.114Z,26.99
2023-05-22T00:46:30.153Z,27.02
2023-05-22T00:47:30.143Z,27.01
2023-05-22T00:48:30.112Z,27.01
2023-05-22T00:49:30.120Z,26.99
2023-05-22T00:50:30.163Z,27.02
2023-05-22T00:51:30.193Z,27.02
2023-05-22T00:52:30.232Z,27.01
2023-05-22T00:53:30.380Z,26.99
2023-05-22T00:54:30.312Z,26.99
2023-05-22T00:55:30.338Z,26.99
2023-05-22T00:56:30.365Z,26.98
2023-05-22T00:57:30.404Z,27.01
2023-05-22T00:58:30.436Z,26.98
2023-05-22T00:59:30.464Z,27.01
2023-05-22T01:00:30.502Z,26.95
2023-05-22T01:01:30.564Z,26.97
2023-05-22T01:02:30.601Z,26.95
2023-05-22T01:03:30.648Z,26.95
2023-05-22T01:04:30.647Z,26.97
2023-05-22T01:05:30.688Z,26.94
2023-05-22T01:06:30.722Z,26.97
2023-05-22T01:07:30.751Z,26.95
2023-05-22T01:08:30.776Z,26.95
2023-05-22T01:09:30.801Z,26.97
2023-05-22T01:10:30.848Z,26.95
2023-05-22T01:11:30.869Z,26.97
2023-05-22T01:12:30.911Z,26.95
2023-05-22T01:13:30.912Z,26.95
2023-05-22T01:14:30.918Z,26.94
2023-05-22T01:15:30.933Z,26.97
2023-05-22T01:16:30.991Z,26.95
2023-05-22T01:17:30.970Z,26.93
2023-05-22T01:18:30.977Z,26.95
2023-05-22T01:19:31.095Z,26.97
2023-05-22T01:20:30.974Z,26.94
2023-05-22T01:21:30.980Z,26.94
2023-05-22T01:22:30.992Z,26.94
2023-05-22T01:23:31.016Z,26.93
2023-05-22T01:24:31.021Z,26.94
2023-05-22T01:25:31.121Z,26.94
2023-05-22T01:26:31.050Z,26.95
2023-05-22T01:27:31.050Z,26.94
2023-05-22T01:28:31.078Z,26.93
2023-05-22T01:29:31.071Z,26.93
2023-05-22T01:30:31.068Z,26.95
2023-05-22T01:31:31.096Z,26.94
2023-05-22T01:32:31.187Z,26.94
2023-05-22T01:33:31.204Z,26.91
2023-05-22T01:34:31.112Z,26.95
2023-05-22T01:35:31.121Z,26.91
2023-05-22T01:36:31.127Z,26.94
2023-05-22T01:37:31.154Z,26.91
2023-05-22T01:38:31.203Z,26.93
2023-05-22T01:39:31.208Z,26.90
2023-05-22T01:40:31.239Z,26.91
2023-05-22T01:41:31.282Z,26.91
2023-05-22T01:42:31.339Z,26.90
2023-05-22T01:43:31.349Z,26.91
2023-05-22T01:44:31.413Z,26.91
2023-05-22T01:45:31.470Z,26.91
2023-05-22T01:46:31.518Z,26.90
2023-05-22T01:47:31.562Z,26.90
2023-05-22T01:48:31.566Z,26.91
2023-05-22T01:49:31.610Z,26.91
2023-05-22T01:50:31.661Z,26.91
2023-05-22T01:51:31.674Z,26.91
2023-05-22T01:52:31.680Z,26.93
2023-05-22T01:53:31.683Z,26.91
2023-05-22T01:54:31.698Z,26.91
2023-05-22T01:55:31.711Z,26.91
2023-05-22T01:56:31.724Z,26.88
2023-05-22T01:57:31.735Z,26.91
2023-05-22T01:58:31.781Z,26.91
2023-05-22T01:59:31.754Z,26.91
2023-05-22T02:00:31.768Z,26.88
2023-05-22T02:01:31.814Z,26.88
2023-05-22T02:02:31.881Z,26.88
2023-05-22T02:03:31.862Z,26.88
2023-05-22T02:04:31.803Z,26.87
2023-05-22T02:05:31.804Z,26.88
2023-05-22T02:06:31.815Z,26.88
2023-05-22T02:07:31.835Z,26.88
2023-05-22T02:08:31.847Z,26.87
2023-05-22T02:09:31.858Z,26.85
2023-05-22T02:10:31.875Z,26.90
2023-05-22T02:11:31.880Z,26.88
2023-05-22T02:12:31.917Z,26.87
2023-05-22T02:13:31.910Z,26.88
2023-05-22T02:14:31.916Z,26.87
2023-05-22T02:15:31.947Z,26.87
2023-05-22T02:16:31.949Z,26.87
2023-05-22T02:17:31.995Z,26.85
2023-05-22T02:18:31.963Z,26.87
2023-05-22T02:19:32.025Z,26.88
2023-05-22T02:20:32.000Z,26.87
2023-05-22T02:21:32.005Z,26.85
2023-05-22T02:22:32.038Z,26.87
2023-05-22T02:23:32.042Z,26.84
2023-05-22T02:24:32.060Z,26.84
2023-05-22T02:25:32.090Z,26.85
2023-05-22T02:26:32.087Z,26.84
2023-05-22T02:27:32.109Z,26.85
2023-05-22T02:28:32.132Z,26.85
2023-05-22T02:29:32.135Z,26.84
2023-05-22T02:30:32.148Z,26.85
2023-05-22T02:31:32.269Z,26.87
2023-05-22T02:32:32.213Z,26.87
2023-05-22T02:33:32.211Z,26.87
2023-05-22T02:34:32.226Z,26.85
2023-05-22T02:35:32.229Z,26.87
2023-05-22T02:36:32.260Z,26.85
2023-05-22T02:37:32.309Z,26.84
2023-05-22T02:38:32.352Z,26.84
2023-05-22T02:39:32.412Z,26.84
2023-05-22T02:40:32.416Z,26.83
2023-05-22T02:41:32.442Z,26.84
2023-05-22T02:42:32.462Z,26.84
2023-05-22T02:43:32.457Z,26.83
2023-05-22T02:44:32.483Z,26.84
2023-05-22T02:45:32.492Z,26.84
2023-05-22T02:46:32.522Z,26.84
2023-05-22T02:47:32.591Z,26.84
2023-05-22T02:48:32.554Z,26.84
2023-05-22T02:49:32.566Z,26.84
2023-05-22T02:50:32.576Z,26.80
2023-05-22T02:51:32.586Z,26.83
2023-05-22T02:52:32.608Z,26.81
2023-05-22T02:53:32.615Z,26.83
2023-05-22T02:54:32.633Z,26.80
2023-05-22T02:55:32.646Z,26.80
2023-05-22T02:56:32.665Z,26.81
2023-05-22T02:57:32.684Z,26.81
2023-05-22T02:58:32.702Z,26.81
2023-05-22T02:59:32.710Z,26.80
2023-05-22T03:00:32.723Z,26.81
2023-05-22T03:01:32.859Z,26.81
2023-05-22T03:02:32.845Z,26.81
2023-05-22T03:03:32.809Z,26.80
2023-05-22T03:04:32.778Z,26.81
2023-05-22T03:05:32.793Z,26.80
2023-05-22T03:06:32.810Z,26.83
2023-05-22T03:07:32.822Z,26.78
2023-05-22T03:08:32.857Z,26.80
2023-05-22T03:09:32.860Z,26.78
2023-05-22T03:10:32.887Z,26.80
2023-05-22T03:11:32.892Z,26.80
2023-05-22T03:12:32.951Z,26.80
2023-05-22T03:13:32.928Z,26.78
2023-05-22T03:14:32.929Z,26.80
2023-05-22T03:15:32.937Z,26.77
2023-05-22T03:16:33.018Z,26.80
2023-05-22T03:17:33.078Z,26.80
2023-05-22T03:18:32.977Z,26.78
2023-05-22T03:19:33.019Z,26.78
2023-05-22T03:20:33.013Z,26.78
2023-05-22T03:21:33.057Z,26.78
2023-05-22T03:22:33.107Z,26.77
2023-05-22T03:23:33.158Z,26.78
2023-05-22T03:24:33.154Z,26.77
2023-05-22T03:25:33.165Z,26.77
2023-05-22T03:26:33.164Z,26.77
2023-05-22T03:27:33.200Z,26.78
2023-05-22T03:28:33.234Z,26.76
2023-05-22T03:29:33.198Z,26.76
2023-05-22T03:30:33.231Z,26.77
2023-05-22T03:31:33.239Z,26.76
2023-05-22T03:32:33.285Z,26.76
2023-05-22T03:33:33.307Z,26.77
2023-05-22T03:34:33.284Z,26.77
2023-05-22T03:35:33.291Z,26.74
2023-05-22T03:36:33.294Z,26.76
2023-05-22T03:37:33.315Z,26.76
2023-05-22T03:38:33.323Z,26.74
2023-05-22T03:39:33.326Z,26.77
2023-05-22T03:40:33.356Z,26.76
2023-05-22T03:41:33.427Z,26.71
2023-05-22T03:42:33.476Z,26.73
2023-05-22T03:43:33.519Z,26.76
2023-05-22T03:44:33.569Z,26.73
2023-05-22T03:45:33.642Z,26.74
2023-05-22T03:46:33.658Z,26.74
2023-05-22T03:47:33.767Z,26.74
2023-05-22T03:48:33.764Z,26.74
2023-05-22T03:49:33.802Z,26.74
2023-05-22T03:50:33.855Z,26.73
2023-05-22T03:51:33.895Z,26.71
2023-05-22T03:52:33.959Z,26.76
2023-05-22T03:53:33.986Z,26.74
2023-05-22T03:54:34.038Z,26.71
2023-05-22T03:55:34.073Z,26.74
2023-05-22T03:56:34.135Z,26.73
2023-05-22T03:57:34.178Z,26.76
2023-05-22T03:58:34.241Z,26.73
2023-05-22T03:59:34.274Z,26.73
2023-05-22T04:00:34.348Z,26.71
2023-05-22T04:01:34.385Z,26.71
2023-05-22T04:02:34.490Z,26.74
2023-05-22T04:03:34.535Z,26.73
2023-05-22T04:04:34.581Z,26.73
2023-05-22T04:05:34.660Z,26.74
2023-05-22T04:06:34.651Z,26.73
2023-05-22T04:07:34.738Z,26.73
2023-05-22T04:08:34.779Z,26.71
2023-05-22T04:09:34.808Z,26.71
2023-05-22T04:10:34.870Z,26.71
2023-05-22T04:11:34.909Z,26.73
2023-05-22T04:12:34.972Z,26.71
2023-05-22T04:13:35.010Z,26.73
2023-05-22T04:14:35.054Z,26.73
2023-05-22T04:15:35.126Z,26.71
2023-05-22T04:16:35.156Z,26.71
2023-05-22T04:17:35.229Z,26.71
2023-05-22T04:18:35.259Z,26.71
2023-05-22T04:19:35.322Z,26.74
2023-05-22T04:20:35.334Z,26.74
2023-05-22T04:21:35.485Z,26.73
2023-05-22T04:22:35.439Z,26.71
2023-05-22T04:23:35.470Z,26.73
2023-05-22T04:24:35.521Z,26.71
2023-05-22T04:25:35.553Z,26.74
2023-05-22T04:26:35.606Z,26.73
2023-05-22T04:27:35.647Z,26.71
2023-05-22T04:28:35.686Z,26.71
2023-05-22T04:29:35.725Z,26.71
2023-05-22T04:30:35.776Z,26.70
2023-05-22T04:31:35.988Z,26.70
2023-05-22T04:32:35.872Z,26.70
2023-05-22T04:33:35.900Z,26.71
2023-05-22T04:34:35.950Z,26.70
2023-05-22T04:35:36.019Z,26.70
2023-05-22T04:36:36.055Z,26.70
2023-05-22T04:37:36.046Z,26.68
2023-05-22T04:38:36.054Z,26.70
2023-05-22T04:39:36.081Z,26.68
2023-05-22T04:40:36.080Z,26.70
2023-05-22T04:41:36.089Z,26.71
2023-05-22T04:42:36.105Z,26.70
2023-05-22T04:43:36.112Z,26.71
2023-05-22T04:44:36.122Z,26.70
2023-05-22T04:45:36.133Z,26.71
2023-05-22T04:46:36.245Z,26.71
2023-05-22T04:47:36.172Z,26.68
2023-05-22T04:48:36.194Z,26.71
2023-05-22T04:49:36.197Z,26.68
2023-05-22T04:50:36.210Z,26.67
2023-05-22T04:51:36.205Z,26.70
2023-05-22T04:52:36.273Z,26.70
2023-05-22T04:53:36.367Z,26.73
2023-05-22T04:54:36.274Z,26.70
2023-05-22T04:55:36.284Z,26.71
2023-05-22T04:56:37.347Z,26.74
2023-05-22T04:57:36.320Z,26.73
2023-05-22T04:58:36.322Z,26.74
2023-05-22T04:59:36.353Z,26.71
2023-05-22T05:00:36.427Z,26.73
2023-05-22T05:01:36.450Z,26.68
2023-05-22T05:02:36.435Z,26.67
2023-05-22T05:03:36.489Z,26.70
2023-05-22T05:04:36.438Z,26.67
2023-05-22T05:05:36.466Z,26.68
2023-05-22T05:06:36.471Z,26.68
2023-05-22T05:07:36.491Z,26.68
2023-05-22T05:08:36.502Z,26.68
2023-05-22T05:09:36.538Z,26.67
2023-05-22T05:10:36.567Z,26.66
2023-05-22T05:11:36.574Z,26.64
2023-05-22T05:12:36.593Z,26.64
2023-05-22T05:13:36.602Z,26.67
2023-05-22T05:14:36.606Z,26.64
2023-05-22T05:15:36.653Z,26.66
2023-05-22T05:16:36.662Z,26.63
2023-05-22T05:17:36.712Z,26.63
2023-05-22T05:18:36.694Z,26.63
2023-05-22T05:19:37.169Z,26.63
2023-05-22T05:20:36.892Z,26.63
2023-05-22T05:21:36.754Z,26.63
2023-05-22T05:22:36.798Z,26.63
2023-05-22T05:23:36.792Z,26.63
2023-05-22T05:24:36.842Z,26.60
2023-05-22T05:25:36.939Z,26.63
2023-05-22T05:26:36.865Z,26.61
2023-05-22T05:27:36.887Z,26.61
2023-05-22T05:28:36.929Z,26.63
2023-05-22T05:29:36.966Z,26.64
2023-05-22T05:30:37.084Z,26.63
2023-05-22T05:31:36.983Z,26.63
2023-05-22T05:32:37.044Z,26.61
2023-05-22T05:33:37.079Z,26.58
2023-05-22T05:34:37.137Z,26.60
2023-05-22T05:35:37.218Z,26.53
2023-05-22T05:36:37.286Z,26.51
2023-05-22T05:37:37.377Z,26.44
2023-05-22T05:38:37.455Z,26.39
2023-05-22T05:39:37.558Z,26.36
2023-05-22T05:40:37.787Z,26.35
2023-05-22T05:41:37.815Z,26.25
2023-05-22T05:42:37.776Z,26.25
2023-05-22T05:43:37.817Z,26.18
2023-05-22T05:44:37.866Z,26.13
2023-05-22T05:45:37.899Z,26.16
2023-05-22T05:46:37.949Z,26.13
2023-05-22T05:47:38.020Z,26.13
2023-05-22T05:48:37.975Z,26.12
2023-05-22T05:49:38.008Z,26.11
2023-05-22T05:50:38.176Z,26.13
2023-05-22T05:51:38.083Z,26.13
2023-05-22T05:52:38.096Z,26.13
2023-05-22T05:53:38.133Z,26.19
2023-05-22T05:54:38.151Z,26.16
2023-05-22T05:55:38.211Z,26.22
2023-05-22T05:56:38.400Z,26.23
2023-05-22T05:57:38.353Z,26.23
2023-05-22T05:58:38.441Z,26.25
2023-05-22T05:59:38.538Z,26.25
2023-05-22T06:00:38.757Z,26.26
2023-05-22T06:01:38.834Z,26.26
2023-05-22T06:02:38.871Z,26.28
2023-05-22T06:03:39.012Z,26.30
2023-05-22T06:04:39.007Z,26.26
2023-05-22T06:05:39.168Z,26.26
2023-05-22T06:06:39.299Z,26.28
2023-05-22T06:07:39.306Z,26.28
2023-05-22T06:08:39.369Z,26.28
2023-05-22T06:09:39.426Z,26.26
2023-05-22T06:10:39.777Z,26.26
2023-05-22T06:11:39.624Z,26.29
2023-05-22T06:12:39.721Z,26.28
2023-05-22T06:13:39.796Z,26.32
2023-05-22T06:14:39.915Z,26.33
2023-05-22T06:15:39.996Z,26.32
2023-05-22T06:16:40.560Z,26.35
2023-05-22T06:17:40.212Z,26.38
2023-05-22T06:18:40.258Z,26.40
2023-05-22T06:19:40.364Z,26.40
2023-05-22T06:20:40.771Z,26.44
2023-05-22T06:21:40.532Z,26.43
2023-05-22T06:22:40.628Z,26.44
2023-05-22T06:23:40.713Z,26.46
2023-05-22T06:24:40.800Z,26.46
2023-05-22T06:25:40.891Z,26.50
2023-05-22T06:26:40.999Z,26.51
2023-05-22T06:27:41.060Z,26.54
2023-05-22T06:28:41.134Z,26.57
2023-05-22T06:29:41.215Z,26.58
2023-05-22T06:30:41.317Z,26.60
2023-05-22T06:31:41.451Z,26.66
2023-05-22T06:32:41.634Z,26.68
2023-05-22T06:33:41.554Z,26.70
2023-05-22T06:34:41.585Z,26.73
2023-05-22T06:35:41.636Z,26.76
2023-05-22T06:36:41.661Z,26.78
2023-05-22T06:37:41.680Z,26.80
2023-05-22T06:38:41.703Z,26.83
2023-05-22T06:39:41.709Z,26.87
2023-05-22T06:40:41.996Z,26.87
2023-05-22T06:41:41.754Z,26.90
2023-05-22T06:42:41.778Z,26.93
2023-05-22T06:43:41.815Z,26.94
2023-05-22T06:44:41.868Z,26.90
2023-05-22T06:45:41.945Z,26.88
2023-05-22T06:46:41.845Z,26.91
2023-05-22T06:47:41.928Z,26.91
2023-05-22T06:49:57.487Z,26.99
2023-05-22T06:50:57.516Z,27.01
2023-05-22T06:51:57.498Z,27.04
2023-05-22T06:52:57.500Z,27.05
2023-05-22T06:53:57.496Z,27.06
2023-05-22T06:54:57.500Z,27.08
2023-05-22T06:55:57.495Z,27.09
2023-05-22T06:56:57.526Z,27.09
2023-05-22T06:57:57.499Z,27.11
2023-05-22T06:58:57.477Z,27.12
2023-05-22T06:59:57.478Z,27.15
2023-05-22T07:00:57.639Z,27.13
2023-05-22T07:01:57.481Z,27.15
2023-05-22T07:02:57.557Z,27.15
2023-05-22T07:03:57.457Z,27.16
2023-05-22T07:04:57.480Z,27.24
2023-05-22T07:05:57.563Z,27.25
2023-05-22T07:06:57.447Z,27.28
2023-05-22T07:07:57.483Z,27.28
2023-05-22T07:08:57.461Z,27.26
2023-05-22T07:09:57.467Z,27.28
2023-05-22T07:10:57.482Z,27.28
2023-05-22T07:11:57.501Z,27.28
2023-05-22T07:12:57.535Z,27.29
2023-05-22T07:13:57.500Z,27.32
2023-05-22T07:14:57.503Z,27.29
2023-05-22T07:15:57.536Z,27.32
2023-05-22T07:16:57.657Z,27.33
2023-05-22T07:17:57.560Z,27.33
2023-05-22T07:18:57.564Z,27.32
2023-05-22T07:19:57.544Z,27.35
2023-05-22T07:20:57.571Z,27.36
2023-05-22T07:21:57.576Z,27.35
2023-05-22T07:22:57.592Z,27.35
2023-05-22T07:23:57.616Z,27.36
2023-05-22T07:24:57.607Z,27.38
2023-05-22T07:25:57.629Z,27.36
2023-05-22T07:26:57.621Z,27.39
2023-05-22T07:27:57.625Z,27.39
2023-05-22T07:28:57.627Z,27.40
2023-05-22T07:29:57.637Z,27.42
2023-05-22T07:30:57.642Z,27.42
2023-05-22T07:31:57.730Z,27.42
2023-05-22T07:32:57.652Z,27.45
2023-05-22T07:33:57.643Z,27.43
2023-05-22T07:34:57.646Z,27.45
2023-05-22T07:35:57.640Z,27.45
2023-05-22T07:36:57.668Z,27.46
2023-05-22T07:37:57.650Z,27.29
2023-05-22T07:38:57.678Z,27.32
2023-05-22T07:39:57.639Z,27.24
2023-05-22T07:40:57.633Z,27.08
2023-05-22T07:41:59.406Z,26.93
2023-05-22T07:42:57.737Z,26.83
2023-05-22T07:43:57.800Z,26.77
2023-05-22T07:44:57.810Z,26.49
2023-05-22T07:45:57.859Z,26.32
2023-05-22T07:46:57.903Z,26.13
2023-05-22T07:47:57.925Z,26.12
2023-05-22T07:48:58.116Z,26.22
2023-05-22T07:49:58.007Z,26.21
2023-05-22T07:50:58.049Z,26.28
2023-05-22T07:51:58.114Z,26.36
2023-05-22T07:52:58.151Z,26.44
2023-05-22T07:54:58.219Z,26.38
2023-05-22T07:55:58.260Z,26.44
2023-05-22T07:56:58.299Z,26.53
2023-05-22T07:57:58.349Z,26.60
2023-05-22T07:58:58.370Z,26.70
2023-05-22T07:59:58.404Z,26.76
2023-05-22T08:00:58.415Z,26.83
2023-05-22T08:01:58.638Z,26.85
2023-05-22T08:02:58.591Z,26.93
2023-05-22T08:03:58.682Z,26.94
2023-05-22T08:04:58.616Z,26.99
2023-05-22T08:05:58.578Z,27.06
2023-05-22T08:06:58.591Z,27.11
2023-05-22T08:07:58.633Z,27.16
2023-05-22T08:08:58.609Z,27.21
2023-05-22T08:09:58.625Z,27.24
2023-05-22T08:11:58.626Z,27.33
2023-05-22T08:12:58.642Z,27.36
2023-05-22T08:13:58.626Z,27.40
2023-05-22T08:14:58.605Z,27.43
2023-05-22T08:16:00.415Z,27.45
2023-05-22T08:16:58.737Z,27.49
2023-05-22T08:17:58.716Z,27.49
2023-05-22T08:18:58.693Z,27.54
2023-05-22T08:19:58.695Z,27.57
2023-05-22T08:20:58.671Z,27.58
2023-05-22T08:21:58.682Z,27.57
2023-05-22T08:22:58.647Z,27.63
2023-05-22T08:23:58.637Z,27.63
2023-05-22T08:24:58.667Z,27.64
2023-05-22T08:25:58.676Z,27.66
2023-05-22T08:26:58.662Z,27.64
2023-05-22T08:27:58.648Z,27.66
2023-05-22T08:28:58.664Z,27.67
2023-05-22T08:29:58.683Z,27.64
2023-05-22T08:30:58.635Z,27.63
2023-05-22T08:31:58.712Z,27.64
2023-05-22T08:32:58.661Z,27.64
2023-05-22T08:33:58.625Z,27.64
2023-05-22T08:34:58.611Z,27.64
2023-05-22T08:35:58.623Z,27.63
2023-05-22T08:36:58.644Z,27.63
2023-05-22T08:37:58.622Z,27.61
2023-05-22T08:38:58.610Z,27.61
2023-05-22T08:39:58.568Z,27.57
2023-05-22T08:40:58.576Z,27.57
2023-05-22T08:41:58.566Z,27.57
2023-05-22T08:42:58.657Z,27.54
2023-05-22T08:43:58.643Z,27.53
2023-05-22T08:44:58.580Z,27.52
2023-05-22T08:45:58.574Z,27.50
2023-05-22T08:46:58.621Z,27.49
2023-05-22T08:47:58.593Z,27.42
2023-05-22T08:48:58.633Z,27.47
2023-05-22T08:49:58.576Z,27.33
2023-05-22T08:50:58.621Z,27.35
2023-05-22T08:51:58.574Z,27.33
2023-05-22T08:52:58.570Z,27.32
2023-05-22T08:53:58.627Z,27.29
2023-05-22T08:54:58.558Z,27.28
2023-05-22T08:55:58.555Z,27.30
2023-05-22T08:56:58.557Z,27.35
2023-05-22T08:57:58.588Z,27.33
2023-05-22T08:58:58.574Z,27.39
2023-05-22T08:59:58.558Z,27.42
2023-05-22T09:00:58.602Z,27.29
2023-05-22T09:01:58.583Z,27.30
2023-05-22T09:02:58.610Z,27.29
2023-05-22T09:03:58.619Z,27.25
2023-05-22T09:04:58.561Z,27.16
2023-05-22T09:05:58.560Z,27.19
2023-05-22T09:06:58.550Z,27.15
2023-05-22T09:08:08.438Z,27.15
2023-05-22T09:08:59.588Z,27.18
2023-05-22T09:09:58.550Z,27.18
2023-05-22T09:10:58.556Z,27.22
2023-05-22T09:11:58.568Z,27.25
2023-05-22T09:12:58.558Z,27.12
2023-05-22T09:13:58.582Z,27.15
2023-05-22T09:14:58.581Z,27.09
2023-05-22T09:15:58.566Z,27.08
2023-05-22T09:16:58.634Z,27.05
2023-05-22T09:17:58.610Z,26.99
2023-05-22T09:18:58.628Z,27.01
2023-05-22T09:19:58.581Z,27.05
2023-05-22T09:20:58.585Z,27.06
2023-05-22T09:21:58.587Z,27.09
2023-05-22T09:22:58.606Z,27.15
2023-05-22T09:23:58.624Z,27.21
2023-05-22T09:24:58.965Z,27.22
2023-05-22T09:25:58.614Z,27.22
2023-05-22T09:26:58.609Z,27.26
2023-05-22T09:27:58.610Z,27.30
2023-05-22T09:28:58.602Z,27.35
2023-05-22T09:29:58.602Z,27.40
2023-05-22T09:30:58.627Z,27.43
2023-05-22T09:31:58.640Z,27.46
2023-05-22T09:32:58.652Z,27.49
2023-05-22T09:33:58.588Z,27.50
2023-05-22T09:34:58.595Z,27.54
2023-05-22T09:35:58.573Z,27.58
2023-05-22T09:36:58.564Z,27.58
2023-05-22T09:37:58.578Z,27.58
2023-05-22T09:38:58.571Z,27.61
2023-05-22T09:39:58.608Z,27.64
2023-05-22T09:40:58.594Z,27.64
2023-05-22T09:41:58.575Z,27.67
2023-05-22T09:42:58.579Z,27.71
2023-05-22T09:44:00.335Z,27.73
2023-05-22T09:44:58.575Z,27.67
2023-05-22T09:45:58.631Z,27.68
2023-05-22T09:46:58.562Z,27.71
2023-05-22T09:47:58.613Z,27.71
2023-05-22T09:48:58.550Z,27.74
2023-05-22T09:49:58.545Z,27.75
2023-05-22T09:50:58.542Z,27.80
2023-05-22T09:51:58.555Z,27.81
2023-05-22T09:52:58.522Z,27.80
2023-05-22T09:53:58.508Z,27.75
2023-05-22T09:54:58.521Z,27.75
2023-05-22T09:55:58.519Z,27.74
2023-05-22T09:56:58.557Z,27.75
2023-05-22T09:57:58.532Z,27.74
2023-05-22T09:58:58.518Z,27.75
2023-05-22T09:59:58.549Z,27.73
2023-05-22T10:00:58.518Z,27.79
2023-05-22T10:01:58.605Z,27.77
2023-05-22T10:02:58.624Z,27.80
2023-05-22T10:03:58.660Z,27.81
2023-05-22T10:04:58.677Z,27.83
2023-05-22T10:05:58.808Z,27.85
2023-05-22T10:06:58.800Z,27.84
2023-05-22T10:07:58.885Z,27.84
2023-05-22T10:08:58.926Z,27.88
2023-05-22T10:09:58.979Z,27.87
2023-05-22T10:10:59.025Z,27.88
2023-05-22T10:11:59.081Z,27.91
2023-05-22T10:12:59.203Z,27.91
2023-05-22T10:13:59.056Z,27.91
2023-05-22T10:14:59.094Z,27.94
2023-05-22T10:15:59.138Z,27.94
2023-05-22T10:16:59.024Z,28.00
2023-05-22T10:17:59.048Z,27.95
2023-05-22T10:18:59.057Z,28.01
2023-05-22T10:19:58.990Z,28.02
2023-05-22T10:20:58.993Z,28.02
2023-05-22T10:21:58.993Z,28.01
2023-05-22T10:22:58.983Z,28.01
2023-05-22T10:23:58.997Z,28.08
2023-05-22T10:24:59.043Z,28.09
2023-05-22T10:25:59.091Z,28.09
2023-05-22T10:26:59.132Z,28.09
2023-05-22T10:27:59.177Z,28.12
2023-05-22T10:28:59.306Z,28.12
2023-05-22T10:29:59.274Z,28.12
2023-05-22T10:30:59.312Z,28.13
2023-05-22T10:31:59.343Z,28.16
2023-05-22T10:32:59.452Z,28.21
2023-05-22T10:33:59.410Z,28.16
2023-05-22T10:34:59.374Z,28.19
2023-05-22T10:35:59.350Z,28.22
2023-05-22T10:37:13.278Z,28.22
2023-05-22T10:38:00.338Z,28.19
2023-05-22T10:38:59.331Z,28.22
2023-05-22T10:39:59.305Z,28.26
2023-05-22T10:40:59.317Z,28.12
2023-05-22T10:41:59.289Z,28.16
2023-05-22T10:42:59.302Z,28.13
2023-05-22T10:43:59.275Z,28.08
2023-05-22T10:44:59.363Z,28.05
2023-05-22T10:45:59.298Z,28.01
2023-05-22T10:46:59.267Z,27.97
2023-05-22T10:47:59.271Z,27.98
2023-05-22T10:48:59.241Z,27.97
2023-05-22T10:49:59.247Z,27.95
2023-05-22T10:51:00.010Z,27.97
2023-05-22T10:51:59.303Z,27.97
2023-05-22T10:52:59.375Z,27.98
2023-05-22T10:53:59.434Z,27.98
2023-05-22T10:54:59.401Z,27.98
2023-05-22T10:55:59.405Z,28.01
2023-05-22T10:56:59.375Z,28.01
2023-05-22T10:57:59.364Z,28.07
2023-05-22T10:58:59.385Z,28.05
2023-05-22T10:59:59.331Z,28.05
2023-05-22T11:00:59.395Z,28.05
2023-05-22T11:01:59.314Z,28.07
2023-05-22T11:03:10.073Z,28.07
2023-05-22T11:04:00.290Z,28.08
2023-05-22T11:04:59.267Z,28.07
2023-05-22T11:05:59.264Z,28.09
2023-05-22T11:06:59.229Z,28.09
2023-05-22T11:07:59.212Z,28.09
2023-05-22T11:08:59.190Z,28.11
2023-05-22T11:09:59.173Z,28.12
2023-05-22T11:10:59.309Z,28.12
2023-05-22T11:11:59.149Z,28.13
2023-05-22T11:12:59.139Z,28.13
2023-05-22T11:13:59.144Z,28.16
2023-05-22T11:14:59.216Z,28.13
2023-05-22T11:15:59.231Z,28.16
2023-05-22T11:16:59.377Z,28.16
2023-05-22T11:17:59.389Z,28.16
2023-05-22T11:19:00.608Z,28.16
2023-05-22T11:19:59.437Z,28.18
2023-05-22T11:20:59.332Z,28.19
2023-05-22T11:21:59.304Z,28.16
2023-05-22T11:22:59.291Z,28.18
2023-05-22T11:23:59.249Z,28.21
2023-05-22T11:24:59.288Z,28.18
2023-05-22T11:25:59.203Z,28.22
2023-05-22T11:26:59.199Z,28.23
2023-05-22T11:27:59.174Z,28.26
2023-05-22T11:28:59.160Z,28.30
2023-05-22T11:29:59.156Z,28.34
2023-05-22T11:30:59.187Z,28.36
2023-05-22T11:31:59.113Z,28.40
2023-05-22T11:32:59.198Z,28.40
2023-05-22T11:33:59.089Z,28.39
2023-05-22T11:34:59.074Z,28.42
2023-05-22T11:35:59.068Z,28.42
2023-05-22T11:36:59.061Z,28.40
2023-05-22T11:37:59.045Z,28.42
2023-05-22T11:38:59.030Z,28.42
2023-05-22T11:39:59.015Z,28.40
2023-05-22T11:40:59.006Z,28.39
2023-05-22T11:41:58.989Z,28.38
2023-05-22T11:42:58.989Z,28.40
2023-05-22T11:43:58.958Z,28.36
2023-05-22T11:44:58.950Z,28.35
2023-05-22T11:45:58.971Z,28.36
2023-05-22T11:46:58.926Z,28.34
2023-05-22T11:47:58.953Z,28.36
2023-05-22T11:48:58.994Z,28.38
2023-05-22T11:49:58.889Z,28.36
2023-05-22T11:50:58.900Z,28.36
2023-05-22T11:51:58.878Z,28.35
2023-05-22T11:52:58.895Z,28.36
2023-05-22T11:53:58.874Z,28.35
2023-05-22T11:54:58.856Z,28.35
2023-05-22T11:55:58.854Z,28.34
2023-05-22T11:56:58.896Z,28.34
2023-05-22T11:57:58.959Z,28.36
2023-05-22T11:58:59.009Z,28.35
2023-05-22T11:59:59.030Z,28.35
2023-05-22T12:00:59.066Z,28.34
2023-05-22T12:01:59.108Z,28.32
2023-05-22T12:02:59.470Z,28.30
2023-05-22T12:03:59.328Z,28.32
2023-05-22T12:04:59.332Z,28.34
2023-05-22T12:05:59.309Z,28.35
2023-05-22T12:06:59.402Z,28.34
2023-05-22T12:07:59.407Z,28.36
2023-05-22T12:08:59.424Z,28.36
2023-05-22T12:09:59.459Z,28.36
2023-05-22T12:10:59.461Z,28.38
2023-05-22T12:11:59.453Z,28.40
2023-05-22T12:12:59.432Z,28.39
2023-05-22T12:13:59.416Z,28.40
2023-05-22T12:14:59.407Z,28.39
2023-05-22T12:15:59.483Z,28.39
2023-05-22T12:16:59.435Z,28.38
2023-05-22T12:17:59.411Z,28.38
2023-05-22T12:18:59.388Z,28.36
2023-05-22T12:19:59.339Z,28.35
2023-05-22T12:20:59.425Z,28.36
2023-05-22T12:21:59.337Z,28.35
2023-05-22T12:22:59.313Z,28.35
2023-05-22T12:23:59.317Z,28.35
2023-05-22T12:24:59.276Z,28.34
2023-05-22T12:25:59.294Z,28.34
2023-05-22T12:26:59.265Z,28.38
2023-05-22T12:27:59.315Z,28.39
2023-05-22T12:28:59.349Z,28.39
2023-05-22T12:29:59.387Z,28.40
2023-05-22T12:30:59.419Z,28.40
2023-05-22T12:31:59.493Z,28.40
2023-05-22T12:32:59.509Z,28.40
2023-05-22T12:33:59.530Z,28.42
2023-05-22T12:34:59.567Z,28.45
2023-05-22T12:35:59.598Z,28.45
2023-05-22T12:36:59.720Z,28.49
2023-05-22T12:37:59.670Z,28.50
2023-05-22T12:38:59.694Z,28.52
2023-05-22T12:39:59.722Z,28.56
2023-05-22T12:40:59.746Z,28.60
2023-05-22T12:41:59.787Z,28.62
2023-05-22T12:42:59.810Z,28.63
2023-05-22T12:43:59.838Z,28.66
2023-05-22T12:44:59.858Z,28.67
2023-05-22T12:46:02.365Z,28.67
2023-05-22T12:46:59.853Z,28.69
2023-05-22T12:47:59.891Z,28.69
2023-05-22T12:48:59.804Z,28.70
2023-05-22T12:49:59.789Z,28.71
2023-05-22T12:50:59.753Z,28.70
2023-05-22T12:51:59.742Z,28.69
2023-05-22T12:52:59.819Z,28.66
2023-05-22T12:53:59.709Z,28.71
2023-05-22T12:54:59.708Z,28.69
2023-05-22T12:55:59.679Z,28.66